Terminal Aerodrome Forecast
Issued by NWS Wilmington, OH

Current Version | Previous Version | Graphics & Text | Print | Product List | Glossary On
Versions: 1 2 3 4 5 6 7 8 9 10 11 12 13 14 15 16 17 18 19 20
000
FTUS41 KILN 100234 AAB
TAFILN
TAF AMD
KILN 100234Z 1003/1024 26007KT P6SM -SHSN OVC035
      TEMPO 1003/1005 5SM -SHSN OVC028
     FM101300 25008KT P6SM BKN080=

USA.gov is the U.S. government's official web portal to all federal, state and local government web resources and services.